Time;durP1;ratioP1;P1;durP2;ratioP2;P2;SDS_P1;SDS_P2;PMS_P1;PMS_P2;Temp;Humidity;BMP_temperature;BMP_pressure;BME280_temperature;BME280_humidity;BME280_pressure;Samples;Min_cycle;Max_cycle;Signal;HPM_P1;HPM_P2
2023/08/22 08:06:58;;;;;;;4.88;1.60;;;18.80;65.30;;;;;;6300538;22;20023;-77
2023/08/22 08:09:26;;;;;;;6.50;1.77;;;18.70;65.40;;;;;;6275424;22;20018;-78
2023/08/22 08:11:53;;;;;;;5.38;2.03;;;18.70;65.30;;;;;;6301482;22;20593;-79
2023/08/22 08:14:20;;;;;;;6.43;1.88;;;18.60;65.30;;;;;;6302286;22;20010;-78
2023/08/22 08:16:47;;;;;;;7.22;1.90;;;18.60;65.40;;;;;;6303481;22;19999;-78
2023/08/22 08:19:15;;;;;;;7.93;1.90;;;18.50;65.40;;;;;;6311894;22;20322;-79
2023/08/22 08:21:43;;;;;;;5.07;2.05;;;18.50;65.40;;;;;;6306072;22;20074;-76
2023/08/22 08:24:11;;;;;;;6.53;1.95;;;18.50;65.20;;;;;;6303055;22;20050;-76
2023/08/22 08:26:38;;;;;;;7.10;2.30;;;18.50;65.20;;;;;;6302868;22;20004;-75
2023/08/22 08:29:06;;;;;;;4.80;1.90;;;18.50;64.80;;;;;;6301694;22;20011;-76
2023/08/22 08:31:33;;;;;;;3.80;1.70;;;18.50;64.70;;;;;;6303569;22;20062;-75
2023/08/22 08:34:00;;;;;;;6.47;2.17;;;18.50;64.70;;;;;;6300471;22;20003;-76
2023/08/22 08:36:28;;;;;;;7.60;2.05;;;18.40;64.70;;;;;;6299785;22;20415;-75
2023/08/22 08:38:55;;;;;;;4.40;1.83;;;18.40;64.80;;;;;;6302586;22;20027;-76
2023/08/22 08:41:22;;;;;;;7.75;2.63;;;18.40;64.60;;;;;;6302412;22;20050;-75
2023/08/22 08:43:49;;;;;;;9.65;4.80;;;18.40;64.70;;;;;;6301468;22;20328;-75
2023/08/22 08:46:17;;;;;;;5.00;2.30;;;18.40;64.40;;;;;;6302105;22;19999;-75
2023/08/22 08:48:44;;;;;;;8.20;2.58;;;18.40;64.10;;;;;;6301463;22;20049;-74
2023/08/22 08:51:11;;;;;;;3.13;2.17;;;18.40;63.90;;;;;;6300993;22;20004;-77
2023/08/22 08:53:39;;;;;;;8.20;2.33;;;18.30;63.80;;;;;;6299737;22;20007;-75
2023/08/22 08:56:09;;;;;;;5.53;2.47;;;18.40;63.60;;;;;;6301751;22;20018;-76
2023/08/22 08:58:37;;;;;;;;;;;18.30;63.40;;;;;;6304177;22;20015;-75
2023/08/22 09:01:04;;;;;;;28.85;11.05;;;18.30;63.30;;;;;;6301060;22;19910;-75
2023/08/22 09:03:31;;;;;;;11.18;5.90;;;18.30;62.90;;;;;;6300555;22;19999;-76
2023/08/22 09:05:59;;;;;;;16.17;9.15;;;18.30;62.70;;;;;;6279805;22;20430;-75
2023/08/22 09:08:26;;;;;;;27.38;15.80;;;18.30;62.00;;;;;;6279241;22;20477;-76
2023/08/22 09:10:54;;;;;;;22.70;13.27;;;18.30;61.70;;;;;;6272121;22;20035;-77
2023/08/22 09:13:28;;;;;;;6.40;4.30;;;18.40;61.30;;;;;;6244938;22;20003;-77
2023/08/22 09:15:59;;;;;;;5.30;2.67;;;18.40;61.50;;;;;;6244003;22;20007;-78
2023/08/22 09:18:27;;;;;;;3.88;2.03;;;18.50;61.20;;;;;;6244075;22;20039;-79
2023/08/22 09:21:03;;;;;;;3.67;2.22;;;18.40;61.10;;;;;;6219758;22;20012;-77
2023/08/22 09:23:34;;;;;;;3.22;1.80;;;18.50;61.00;;;;;;6246438;22;20014;-78
2023/08/22 09:26:02;;;;;;;3.83;2.17;;;18.50;61.30;;;;;;6244958;22;20086;-75
2023/08/22 09:28:30;;;;;;;5.18;2.20;;;18.50;61.40;;;;;;6272378;22;20035;-77
2023/08/22 09:30:57;;;;;;;4.30;2.30;;;18.40;62.40;;;;;;6271712;22;20007;-75
2023/08/22 09:33:24;;;;;;;7.70;2.67;;;18.40;62.10;;;;;;6220259;22;20031;-77
2023/08/22 09:35:56;;;;;;;7.15;1.92;;;18.40;62.70;;;;;;6269856;22;20007;-78
2023/08/22 09:38:24;;;;;;;3.05;1.50;;;18.40;60.70;;;;;;6244697;22;20082;-77
2023/08/22 09:40:54;;;;;;;2.28;1.60;;;18.50;59.80;;;;;;6245351;22;20000;-78
2023/08/22 09:43:22;;;;;;;3.25;1.70;;;18.50;56.90;;;;;;6270926;22;20331;-76
2023/08/22 09:45:51;;;;;;;2.47;1.85;;;18.70;55.10;;;;;;6219854;22;20000;-76
2023/08/22 09:48:30;;;;;;;3.90;1.60;;;18.70;55.30;;;;;;6245226;22;20008;-76
2023/08/22 09:50:58;;;;;;;4.28;1.70;;;18.60;54.80;;;;;;6221393;22;20430;-75
2023/08/22 09:53:25;;;;;;;2.03;1.30;;;18.70;54.10;;;;;;6219868;22;20062;-78
2023/08/22 09:55:53;;;;;;;2.63;1.60;;;18.70;53.20;;;;;;6220538;22;20000;-77
2023/08/22 09:58:20;;;;;;;2.05;1.58;;;18.70;53.10;;;;;;6247417;22;20012;-77
2023/08/22 10:00:48;;;;;;;2.20;1.60;;;18.70;53.40;;;;;;6246850;22;20430;-75
2023/08/22 10:03:16;;;;;;;6.40;1.95;;;18.70;53.40;;;;;;6247038;22;20011;-79
2023/08/22 11:40:50;;;;;;;3.17;1.48;;;18.20;58.70;;;;;;6302123;22;20050;-77
2023/08/22 11:43:17;;;;;;;2.97;1.80;;;18.20;58.70;;;;;;6303794;22;20069;-77
2023/08/22 11:45:48;;;;;;;4.88;1.70;;;18.20;59.00;;;;;;6250959;22;20434;-73
2023/08/22 11:48:17;;;;;;;3.17;1.90;;;18.10;59.50;;;;;;6303530;22;20405;-75
2023/08/22 11:50:47;;;;;;;5.95;1.90;;;18.10;59.90;;;;;;6303655;22;20081;-73
2023/08/22 11:53:15;;;;;;;4.45;1.83;;;18.10;60.70;;;;;;6303033;22;20437;-74
2023/08/22 11:55:44;;;;;;;5.35;1.90;;;18.10;62.00;;;;;;6303893;22;20426;-75
2023/08/22 11:58:16;;;;;;;2.50;1.67;;;18.00;64.00;;;;;;6275582;22;20015;-75
2023/08/22 12:00:43;;;;;;;2.92;1.85;;;18.00;63.20;;;;;;6251405;22;20783;-73
2023/08/22 12:03:11;;;;;;;3.45;1.77;;;18.00;60.50;;;;;;6251393;22;20003;-72
2023/08/22 12:05:44;;;;;;;4.35;1.63;;;18.10;59.90;;;;;;6302979;22;20270;-75
2023/08/22 12:08:11;;;;;;;4.35;1.80;;;18.10;59.80;;;;;;6304000;22;20026;-74
2023/08/22 12:10:39;;;;;;;3.33;1.75;;;18.10;59.80;;;;;;6303176;22;20422;-74
2023/08/22 12:13:07;;;;;;;6.70;2.10;;;18.20;60.90;;;;;;6276240;22;20287;-75
2023/08/22 12:15:34;;;;;;;3.40;1.80;;;18.20;61.60;;;;;;6276425;22;19999;-74
2023/08/22 12:18:02;;;;;;;2.65;1.70;;;18.10;62.10;;;;;;6275588;22;20011;-73
2023/08/22 12:20:30;;;;;;;2.40;1.80;;;18.10;62.70;;;;;;6300795;22;20018;-74
2023/08/22 12:22:57;;;;;;;4.10;1.77;;;18.10;62.80;;;;;;6303524;22;20014;-72
2023/08/22 12:25:24;;;;;;;4.22;1.63;;;18.10;63.00;;;;;;6303350;22;20007;-72
2023/08/22 12:27:52;;;;;;;12.15;2.45;;;18.10;64.50;;;;;;6301767;22;20010;-73
2023/08/22 12:30:19;;;;;;;2.67;1.80;;;17.80;71.30;;;;;;6302870;22;20017;-74
2023/08/22 12:32:46;;;;;;;3.85;1.50;;;17.50;72.90;;;;;;6303548;22;20003;-74
2023/08/22 12:35:14;;;;;;;6.35;1.83;;;17.20;74.10;;;;;;6301268;22;20007;-75
2023/08/22 12:37:41;;;;;;;4.97;2.08;;;17.00;75.30;;;;;;6302131;22;20418;-73
2023/08/22 13:30:55;;;;;;;6.65;1.73;;;16.20;79.20;;;;;;6293366;22;20967;-74
2023/08/22 13:33:22;;;;;;;11.38;2.03;;;16.20;79.60;;;;;;6302316;22;20030;-75
2023/08/22 13:35:49;;;;;;;9.15;2.10;;;16.20;79.50;;;;;;6300261;22;20023;-73
2023/08/22 13:38:17;;;;;;;4.63;1.63;;;16.20;80.40;;;;;;6275012;22;20689;-74
2023/08/22 13:40:44;;;;;;;7.95;1.70;;;16.20;80.00;;;;;;6302338;22;20003;-75
2023/08/22 13:43:11;;;;;;;9.15;1.90;;;16.30;80.10;;;;;;6301687;22;20003;-75
2023/08/22 13:45:39;;;;;;;9.77;1.90;;;16.20;80.20;;;;;;6302160;22;19999;-76
2023/08/22 13:48:06;;;;;;;9.75;2.00;;;16.20;80.50;;;;;;6275234;22;20018;-77
2023/08/22 13:50:33;;;;;;;13.07;1.98;;;16.20;81.20;;;;;;6302841;22;19996;-75
2023/08/22 13:53:00;;;;;;;8.40;1.80;;;16.30;81.20;;;;;;6302687;22;20015;-75
2023/08/22 13:55:28;;;;;;;8.45;1.90;;;16.20;81.50;;;;;;6302801;22;20006;-75
2023/08/22 13:57:56;;;;;;;4.93;1.65;;;16.30;81.80;;;;;;6274764;22;20380;-76
2023/08/22 14:00:24;;;;;;;9.70;2.30;;;16.20;81.90;;;;;;6303173;22;20057;-75
2023/08/22 14:02:51;;;;;;;10.60;2.00;;;16.20;82.10;;;;;;6303417;22;19995;-75
2023/08/22 14:05:19;;;;;;;9.45;1.95;;;16.20;82.50;;;;;;6302592;22;20038;-77
2023/08/22 14:07:46;;;;;;;9.30;1.63;;;16.20;82.30;;;;;;6302970;22;20375;-75
2023/08/22 14:10:13;;;;;;;8.23;1.60;;;16.10;82.20;;;;;;6303003;22;20449;-75
2023/08/22 14:12:41;;;;;;;5.47;1.83;;;16.10;82.20;;;;;;6302080;22;20078;-75
2023/08/22 14:15:08;;;;;;;7.40;1.90;;;16.10;81.90;;;;;;6302677;22;20022;-75
2023/08/22 14:17:35;;;;;;;8.98;1.80;;;16.10;82.00;;;;;;6302365;22;20010;-76
2023/08/22 14:20:04;;;;;;;10.68;1.90;;;16.10;81.80;;;;;;6303550;22;20504;-74
2023/08/22 14:22:31;;;;;;;7.75;1.80;;;16.10;81.90;;;;;;6302744;22;20007;-73
2023/08/22 14:24:58;;;;;;;9.35;1.73;;;16.10;81.50;;;;;;6302280;22;20011;-73
2023/08/22 14:27:25;;;;;;;6.47;1.73;;;16.10;81.50;;;;;;6303302;22;20061;-74
2023/08/22 14:29:53;;;;;;;8.55;1.90;;;16.00;81.20;;;;;;6302537;22;20026;-74
2023/08/22 15:52:45;;;;;;;2.13;1.02;;;15.50;78.10;;;;;;6299594;22;20033;-75
2023/08/22 15:55:12;;;;;;;3.95;1.55;;;15.40;78.30;;;;;;6303420;22;20015;-75
2023/08/22 15:57:39;;;;;;;2.35;1.30;;;15.40;78.40;;;;;;6279756;22;20011;-75
2023/08/22 16:00:11;;;;;;;4.43;1.27;;;15.40;78.40;;;;;;6306484;22;20422;-75
2023/08/22 16:02:39;;;;;;;2.42;1.20;;;15.30;78.70;;;;;;6306668;22;20000;-75
2023/08/22 16:05:06;;;;;;;4.10;1.35;;;15.40;78.40;;;;;;6307186;22;20094;-76
2023/08/22 16:07:34;;;;;;;2.88;0.95;;;15.40;78.40;;;;;;6307028;22;20042;-75
2023/08/22 16:10:01;;;;;;;1.33;1.05;;;15.40;78.50;;;;;;6307230;22;20019;-75
2023/08/22 16:12:28;;;;;;;3.55;1.30;;;15.30;79.00;;;;;;6306815;22;19995;-75
2023/08/22 16:14:55;;;;;;;4.25;1.30;;;15.30;78.70;;;;;;6279467;22;20030;-75
2023/08/22 16:17:22;;;;;;;5.30;1.25;;;15.30;78.80;;;;;;6279780;22;19999;-75
2023/08/22 16:19:50;;;;;;;5.65;1.38;;;15.20;78.90;;;;;;6306354;22;20053;-75
2023/08/22 16:22:18;;;;;;;3.42;1.13;;;15.20;78.90;;;;;;6279238;22;20444;-75
2023/08/22 16:24:46;;;;;;;1.88;1.10;;;15.20;78.70;;;;;;6307702;22;20086;-75
2023/08/22 16:27:13;;;;;;;1.45;1.00;;;15.10;79.00;;;;;;6279060;22;20007;-75
2023/08/22 16:29:40;;;;;;;2.85;1.48;;;15.10;79.10;;;;;;6305913;22;19999;-75
2023/08/22 16:32:07;;;;;;;2.55;1.20;;;15.00;79.00;;;;;;6305848;22;20061;-75
2023/08/22 16:34:34;;;;;;;3.85;0.88;;;15.00;79.30;;;;;;6307284;22;20092;-75
2023/08/22 16:37:02;;;;;;;1.73;1.05;;;15.00;79.00;;;;;;6306862;22;20056;-75
2023/08/22 16:39:29;;;;;;;2.22;0.90;;;15.00;79.20;;;;;;6280053;22;20389;-75
2023/08/22 16:41:56;;;;;;;3.17;1.00;;;15.00;78.90;;;;;;6306460;22;19999;-75
2023/08/22 16:44:23;;;;;;;1.55;1.08;;;15.00;79.00;;;;;;6305423;22;20064;-75
2023/08/22 16:46:50;;;;;;;1.92;1.10;;;14.90;78.50;;;;;;6278905;22;20000;-75
2023/08/22 16:49:18;;;;;;;1.42;0.95;;;14.90;78.40;;;;;;6306694;22;20544;-75
2023/08/22 16:51:45;;;;;;;1.98;1.00;;;14.90;78.10;;;;;;6279145;22;20007;-75
2023/08/22 16:54:13;;;;;;;1.38;1.00;;;15.00;78.10;;;;;;6289066;22;20019;-75
2023/08/22 16:56:40;;;;;;;0.95;0.88;;;15.00;77.80;;;;;;6306205;22;20331;-75
2023/08/22 16:59:08;;;;;;;1.60;0.95;;;15.00;77.60;;;;;;6305173;22;20011;-75
2023/08/22 17:01:35;;;;;;;0.82;0.80;;;15.00;76.60;;;;;;6306197;22;20101;-75
2023/08/22 17:04:02;;;;;;;2.65;0.88;;;14.90;76.40;;;;;;6306224;22;20006;-75
2023/08/22 17:06:30;;;;;;;4.85;1.00;;;14.90;76.10;;;;;;6278215;22;20003;-75
2023/08/22 17:08:58;;;;;;;1.15;0.85;;;14.90;76.50;;;;;;6306445;22;20037;-75
2023/08/22 17:11:25;;;;;;;1.63;0.80;;;15.00;75.50;;;;;;6306244;22;20068;-75
2023/08/22 17:13:52;;;;;;;2.85;0.68;;;14.90;75.60;;;;;;6306465;22;20067;-75
2023/08/22 17:16:19;;;;;;;1.02;0.60;;;15.00;75.20;;;;;;6306320;22;20005;-75
2023/08/22 17:18:48;;;;;;;1.55;0.95;;;15.00;74.80;;;;;;6304643;22;20349;-75
2023/08/22 17:21:15;;;;;;;0.82;0.75;;;15.00;74.20;;;;;;6305074;22;20025;-75
2023/08/22 17:23:43;;;;;;;1.25;0.80;;;15.00;73.90;;;;;;6306464;22;20002;-75
2023/08/22 17:26:12;;;;;;;1.70;0.82;;;15.00;73.20;;;;;;6305901;22;20019;-75
2023/08/22 17:28:39;;;;;;;1.10;0.80;;;15.00;70.90;;;;;;6306337;22;20078;-75
2023/08/22 17:31:07;;;;;;;1.05;0.70;;;15.10;70.70;;;;;;6304986;22;20000;-75
2023/08/22 17:33:41;;;;;;;1.25;0.85;;;15.10;71.70;;;;;;6306508;22;20003;-75
2023/08/22 17:36:10;;;;;;;2.72;0.82;;;15.10;71.70;;;;;;6304475;22;19999;-75
2023/08/22 17:38:37;;;;;;;0.88;0.80;;;15.10;71.50;;;;;;6304543;22;20003;-75
2023/08/22 17:41:05;;;;;;;1.92;0.80;;;15.20;70.70;;;;;;6279785;22;20333;-75
2023/08/22 17:43:34;;;;;;;0.95;0.73;;;15.20;69.60;;;;;;6304833;22;20042;-75
2023/08/22 17:46:02;;;;;;;0.45;0.45;;;15.20;70.10;;;;;;6306151;22;20325;-75
2023/08/22 17:48:29;;;;;;;0.75;0.45;;;15.20;70.90;;;;;;6304067;22;20438;-74
2023/08/22 17:50:57;;;;;;;1.05;0.77;;;15.20;71.80;;;;;;6306101;22;20046;-75
2023/08/22 17:53:24;;;;;;;2.72;1.27;;;15.20;72.90;;;;;;6277789;22;20015;-74
2023/08/22 17:55:52;;;;;;;4.18;1.08;;;15.20;76.70;;;;;;6305222;22;20089;-74
2023/08/22 17:58:20;;;;;;;2.17;0.80;;;14.70;79.50;;;;;;6305922;22;20003;-74
2023/08/22 18:00:50;;;;;;;2.35;0.85;;;14.40;81.80;;;;;;6306069;22;20009;-74
2023/08/22 18:03:17;;;;;;;2.85;0.88;;;14.20;82.00;;;;;;6278964;22;20373;-74
2023/08/22 18:06:00;;;;;;;1.35;0.75;;;14.00;82.30;;;;;;6305367;22;20015;-74
2023/08/22 18:08:28;;;;;;;2.30;0.80;;;13.90;81.60;;;;;;6305696;22;20011;-75
2023/08/22 18:10:55;;;;;;;1.83;0.90;;;13.80;82.60;;;;;;6305330;22;20015;-75
2023/08/22 18:13:25;;;;;;;7.57;0.95;;;13.80;82.00;;;;;;6305728;22;20397;-75
2023/08/22 18:16:02;;;;;;;0.80;0.80;;;13.70;83.00;;;;;;6279702;22;20030;-74
2023/08/22 18:28:56;;;;;;;3.47;0.88;;;13.50;86.60;;;;;;6303032;22;20034;-72
2023/08/22 18:31:26;;;;;;;3.40;0.98;;;13.40;88.70;;;;;;6276114;22;20008;-71
2023/08/22 18:33:56;;;;;;;;;;;13.40;89.00;;;;;;6275802;22;20339;-72
2023/08/22 18:36:28;;;;;;;3.10;0.98;;;13.40;89.10;;;;;;6275916;22;20230;-71
2023/08/22 18:38:56;;;;;;;1.08;0.93;;;13.30;88.80;;;;;;6275238;22;20015;-72
2023/08/22 18:41:23;;;;;;;1.27;0.90;;;13.30;89.30;;;;;;6248527;22;20362;-72
2023/08/22 18:43:51;;;;;;;4.60;1.10;;;13.20;89.20;;;;;;6225195;22;20388;-73
2023/08/22 18:46:20;;;;;;;1.73;0.88;;;13.20;89.10;;;;;;6250154;22;20075;-73
2023/08/22 18:48:48;;;;;;;1.80;0.90;;;13.20;89.50;;;;;;6276441;22;20054;-72
2023/08/22 18:51:15;;;;;;;1.55;0.85;;;13.20;89.20;;;;;;6276658;22;20435;-72
2023/08/22 18:53:42;;;;;;;1.73;0.90;;;13.30;89.30;;;;;;6275272;22;19999;-72
2023/08/22 18:56:09;;;;;;;2.03;0.90;;;13.20;88.90;;;;;;6276384;22;20000;-72
2023/08/22 18:58:37;;;;;;;3.33;1.00;;;13.20;88.70;;;;;;6275994;22;20003;-72
2023/08/22 19:01:04;;;;;;;4.55;1.00;;;13.20;88.40;;;;;;6249909;22;20090;-71
2023/08/22 19:03:32;;;;;;;1.50;0.77;;;13.20;88.70;;;;;;6276260;22;20363;-72
2023/08/22 19:05:59;;;;;;;4.43;1.13;;;13.20;88.80;;;;;;6276309;22;20000;-71
2023/08/22 19:08:26;;;;;;;3.22;0.82;;;13.20;88.50;;;;;;6276148;22;20024;-72
2023/08/22 19:10:53;;;;;;;2.22;0.90;;;13.20;88.10;;;;;;6275649;22;20008;-73
2023/08/22 19:13:21;;;;;;;2.38;1.00;;;13.20;88.20;;;;;;6275474;22;19999;-72
2023/08/22 19:15:48;;;;;;;2.58;0.82;;;13.20;88.10;;;;;;6276065;22;20119;-74
2023/08/22 19:18:15;;;;;;;2.42;0.90;;;13.20;87.50;;;;;;6249381;22;20026;-73
2023/08/22 19:20:42;;;;;;;1.73;0.70;;;13.20;87.80;;;;;;6276449;22;20002;-73
2023/08/22 19:23:09;;;;;;;1.23;0.75;;;13.20;87.80;;;;;;6250036;22;20014;-72
2023/08/22 19:25:37;;;;;;;2.08;0.80;;;13.20;87.60;;;;;;6276010;22;20000;-72
2023/08/22 19:28:04;;;;;;;3.28;1.00;;;13.20;87.40;;;;;;6250068;22;20065;-71
2023/08/22 19:30:31;;;;;;;1.58;0.80;;;13.20;87.50;;;;;;6298081;22;20048;-72
2023/08/22 19:32:58;;;;;;;1.58;0.80;;;13.20;87.60;;;;;;6306434;22;20075;-72
2023/08/22 19:35:28;;;;;;;1.42;0.85;;;13.20;87.60;;;;;;6307027;22;20356;-72
2023/08/22 19:37:56;;;;;;;1.25;0.80;;;13.10;87.90;;;;;;6307318;22;20338;-72
2023/08/22 19:40:23;;;;;;;1.83;1.05;;;13.10;88.00;;;;;;6307114;22;20361;-72
2023/08/22 19:42:50;;;;;;;1.27;0.93;;;13.00;88.30;;;;;;6306995;22;19995;-72
2023/08/22 19:45:17;;;;;;;3.13;1.17;;;13.00;88.50;;;;;;6307142;22;20007;-72
2023/08/22 19:47:45;;;;;;;1.85;1.00;;;13.00;88.80;;;;;;6307233;22;20006;-72
2023/08/22 19:50:12;;;;;;;2.25;1.00;;;12.90;88.80;;;;;;6307345;22;20015;-72
2023/08/22 19:52:39;;;;;;;1.27;0.77;;;12.90;88.60;;;;;;6307225;22;20141;-72
2023/08/22 19:55:07;;;;;;;2.00;1.00;;;12.90;88.90;;;;;;6307309;22;20007;-72
2023/08/22 19:57:34;;;;;;;1.42;1.00;;;12.90;89.40;;;;;;6307202;22;20082;-72
